A- A+

最近的 Port Bouet机场的John Glenn Columbus International机场的Somerset机场的Lugano机场的Walker County-Bevill Field机场的Thule Air Base机场的

机场信息,从地图到酒店再到航空信息。 以及飞行员的航空天气,METAR(METeorological Aerodrome Report,航空气象条件观测信息)和TAF(终端机场预报:航空气象条件短期预报信息)。 以及其他资源,例如 VAC(Visual Approach Chart)来准备航班.

机场Songkhla 在 (泰国)

机场Songkhla 它位于附近 和 Ban Tao It 在 1km, Songkhla 在 2km, Ban Mai 在 7km, Bang Klam 在 24km, Hat Yai 在 25km, Na Mom 在 26km,

→ 也可以看看 最北端的机场 泰国最南端的机场 泰国

→ 也可以看看 机场 在 泰国

的酒店 机场Songkhla

的鸟瞰图 机场Songkhla

机场代码

海拔 : 4 m = 13ft

→ 也可以看看 最高的机场 泰国最低的机场 泰国

跑道

→ 也可以看看 拥有最长跑道的机场 泰国

快到车站了 机场Songkhla

出租车 : Taxi Booking

活动 : Viator

租个车 : Rentalcars

乘搭火车 : Trip.com

坐飞机去的 :

的天气 : 多云 在 Ban Tao It

ciel couvert
32°C
26 ↗ 32°C

的风 15km/h
阵阵 20km/h

机场Songkhla VTSH SGZ航空天气

没有METAR 为了 机场Songkhla

但航空气象预报可用于机场 Songkhla机场的 (VTSH) 在 0km

TAF 为了 机场Songkhla VTSH SGZ

VTSH 091700Z 0918/1018 10005KT 9999 FEW020

机场Songkhla VTSH SGZTAF 解码(预测)

VTSH机场发行的TAF日期2020年4月10日星期五至17:00 UTC 警告:此TAF已过期, 发布 1558 天和 16 小时和 52 分钟. 这是 24 小时, 天气预报更新时间 6 小时.

从 2020年4月10日星期五 à 18:00 heure TU 到 2020年4月11日星期六 à 18:00 heure UTC

0918/1018 10005KT 9999 FEW020

的风 5kt = 9km/h, 风向为 100°

可见度为 大于 10km = 大于 6mi.

处少云 2000ft = 610m

NOTAM 为了 机场Songkhla

参见航行通告

机场Songkhla 在 (泰国)附近

最近的机场机场Songkhla 在 (泰国)

→ 也可以看看 的前机场 泰国

数据源